Terminal Aerodrome Forecast
Issued by NWS Cleveland, OH

Home | Current Version | Previous Version | Text Only | Print | Product List | Glossary On
Versions: 1 2 3 4 5 6 7 8 9 10 11 12 13 14 15 16 17 18 19 20
965
FTUS41 KCLE 130527
TAFYNG
TAF
KYNG 130527Z 1306/1406 30012KT 2SM -SHSN OVC035
      TEMPO 1306/1307 32012G20KT 3/4SM -SHSN OVC012
     FM130900 30012G22KT 3SM -SHSN BKN025
      TEMPO 1309/1313 1SM -SHSN OVC015
     FM131400 30015G22KT 6SM -SHSN OVC025
     FM131800 31015G22KT 4SM -SHSN OVC025
     FM132300 31012KT P6SM BKN035=

USA.gov is the U.S. government's official web portal to all federal, state and local government web resources and services.